TAF and METAR

METAR for Eros Airport

FYWE 011300Z 29006KT 270V330 CAVOK 27/07 Q1023
Report created 1. apr 15:00
wind 6 knots from WNW (290°) Wind direction varies from W to NNW Clear sky Temperature 27° with dewpoint at 7° (Humidity 28.15%) Pressure 1023 hPa

TAF for Eros Airport

TAF FYWE 011100Z 0112/0121 03007KT CAVOK BECMG 0113/0115 9999 SCT050 BECMG 0117/0119 18005KT CAVOK
Report created 1. apr 13:00

between 1. apr 14:00 - 1. apr 23:00

wind 7 knots from NNE (030°) Clear sky

becoming between 1. apr 15:00 - 1. apr 17:00

visibility > 10km scattered clouds (~50% cover) at 5000 feet

becoming between 1. apr 19:00 - 1. apr 21:00

wind 5 knots from S (180°) Clear sky